Time;durP1;ratioP1;P1;durP2;ratioP2;P2;SDS_P1;SDS_P2;PMS_P1;PMS_P2;Temp;Humidity;BMP_temperature;BMP_pressure;BME280_temperature;BME280_humidity;BME280_pressure;Samples;Min_cycle;Max_cycle;Signal;HPM_P1;HPM_P2
2022/12/26 00:01:59;;;;;;;8.43;4.00;;;;;;;;;;4961487;28;92498;-65
2022/12/26 00:04:25;;;;;;;7.78;3.72;;;;;;;;;;4974774;28;92247;-65
2022/12/26 00:07:12;;;;;;;7.07;3.50;;;;;;;;;;4979618;28;93655;-66
2022/12/26 00:09:38;;;;;;;7.57;3.65;;;;;;;;;;4965854;28;92285;-65
2022/12/26 00:12:05;;;;;;;8.07;4.07;;;;;;;;;;4978585;28;93994;-65
2022/12/26 00:14:31;;;;;;;7.68;3.50;;;;;;;;;;4980056;28;92334;-65
2022/12/26 00:16:57;;;;;;;7.18;3.70;;;;;;;;;;4979131;28;94498;-66
2022/12/26 00:19:24;;;;;;;7.43;3.50;;;;;;;;;;4980521;28;93151;-65
2022/12/26 00:21:50;;;;;;;8.90;3.80;;;;;;;;;;4981096;28;92616;-65
2022/12/26 00:24:17;;;;;;;7.50;3.58;;;;;;;;;;4979689;28;93190;-65
2022/12/26 00:26:43;;;;;;;6.78;3.38;;;;;;;;;;4980490;28;92735;-65
2022/12/26 00:29:10;;;;;;;6.82;3.42;;;;;;;;;;4984317;28;93992;-67
2022/12/26 00:31:36;;;;;;;11.93;3.80;;;;;;;;;;4979468;28;92581;-68
2022/12/26 00:34:03;;;;;;;18.88;3.72;;;;;;;;;;4979360;28;91325;-67
2022/12/26 00:36:31;;;;;;;9.15;3.88;;;;;;;;;;4979544;28;92040;-68
2022/12/26 00:38:58;;;;;;;8.00;3.60;;;;;;;;;;4979293;28;92662;-68
2022/12/26 00:41:24;;;;;;;8.82;4.00;;;;;;;;;;4977571;28;94787;-68
2022/12/26 00:43:51;;;;;;;8.85;4.25;;;;;;;;;;4960280;28;95602;-68
2022/12/26 00:46:17;;;;;;;9.02;4.47;;;;;;;;;;4965575;28;92578;-68
2022/12/26 00:48:44;;;;;;;10.75;4.50;;;;;;;;;;4980909;28;92333;-68
2022/12/26 00:51:11;;;;;;;10.65;4.78;;;;;;;;;;4983975;28;92771;-69
2022/12/26 00:53:37;;;;;;;10.25;4.78;;;;;;;;;;4980566;28;92398;-68
2022/12/26 00:56:04;;;;;;;10.30;4.97;;;;;;;;;;4977886;28;92516;-69
2022/12/26 00:58:31;;;;;;;11.90;4.88;;;;;;;;;;4969370;28;92552;-68
2022/12/26 01:01:05;;;;;;;9.70;4.57;;;;;;;;;;4983233;28;92169;-70
2022/12/26 01:03:31;;;;;;;10.35;4.82;;;;;;;;;;4984434;28;92354;-68
2022/12/26 01:05:57;;;;;;;9.32;4.60;;;;;;;;;;4981881;28;95293;-69
2022/12/26 01:08:24;;;;;;;10.07;4.43;;;;;;;;;;4984197;28;92098;-68
2022/12/26 01:10:50;;;;;;;8.60;4.30;;;;;;;;;;4984328;28;92319;-68
2022/12/26 01:13:17;;;;;;;9.20;4.35;;;;;;;;;;4987225;28;92710;-68
2022/12/26 01:15:52;;;;;;;7.97;4.05;;;;;;;;;;4984067;28;92462;-69
2022/12/26 01:18:19;;;;;;;8.90;4.53;;;;;;;;;;4984775;28;92638;-69
2022/12/26 01:20:45;;;;;;;9.20;4.28;;;;;;;;;;4984134;28;92231;-67
2022/12/26 01:23:12;;;;;;;9.27;4.25;;;;;;;;;;4985020;28;92217;-68
2022/12/26 01:25:38;;;;;;;9.40;4.57;;;;;;;;;;4983547;28;92630;-68
2022/12/26 01:28:25;;;;;;;9.27;4.43;;;;;;;;;;4984203;28;92243;-67
2022/12/26 01:30:51;;;;;;;9.25;4.47;;;;;;;;;;4982528;28;95162;-68
2022/12/26 01:33:18;;;;;;;9.02;4.10;;;;;;;;;;4984064;28;92527;-68
2022/12/26 01:35:48;;;;;;;10.10;4.72;;;;;;;;;;4972988;28;92313;-68
2022/12/26 01:38:14;;;;;;;9.60;4.60;;;;;;;;;;4983771;28;93700;-68
2022/12/26 01:40:42;;;;;;;9.88;5.07;;;;;;;;;;4983698;28;92104;-68
2022/12/26 01:43:12;;;;;;;10.95;5.07;;;;;;;;;;4984037;28;92469;-68
2022/12/26 01:45:38;;;;;;;9.05;4.68;;;;;;;;;;4983224;28;92709;-68
2022/12/26 01:48:33;;;;;;;10.20;4.90;;;;;;;;;;4984203;28;91452;-68
2022/12/26 01:51:01;;;;;;;9.82;5.03;;;;;;;;;;4978121;28;92342;-68
2022/12/26 01:53:33;;;;;;;9.93;4.68;;;;;;;;;;4982922;28;93576;-67
2022/12/26 01:56:02;;;;;;;9.90;4.93;;;;;;;;;;4981415;28;94380;-67
2022/12/26 01:58:32;;;;;;;10.60;5.10;;;;;;;;;;4986397;28;93988;-68
2022/12/26 02:01:01;;;;;;;9.90;5.18;;;;;;;;;;4983601;28;92576;-67
2022/12/26 02:06:13;;;;;;;;;;;;;;;;;;4983750;28;93341;-67
2022/12/26 02:08:39;;;;;;;10.38;5.38;;;;;;;;;;4984015;28;118342;-68
2022/12/26 02:11:16;;;;;;;10.75;5.35;;;;;;;;;;4982768;28;92242;-68
2022/12/26 02:13:42;;;;;;;11.30;5.72;;;;;;;;;;4983128;28;91830;-68
2022/12/26 02:16:11;;;;;;;12.23;6.15;;;;;;;;;;4991929;28;92752;-68
2022/12/26 02:18:37;;;;;;;12.32;6.30;;;;;;;;;;4985820;28;92511;-68
2022/12/26 02:21:13;;;;;;;10.43;5.30;;;;;;;;;;4981407;28;94753;-68
2022/12/26 02:23:58;;;;;;;10.10;5.32;;;;;;;;;;4983368;28;96063;-67
2022/12/26 02:26:24;;;;;;;11.38;5.80;;;;;;;;;;4982937;28;92678;-67
2022/12/26 02:28:51;;;;;;;10.68;5.72;;;;;;;;;;4982768;28;92056;-68
2022/12/26 02:31:36;;;;;;;10.73;5.00;;;;;;;;;;4983054;28;92301;-68
2022/12/26 02:34:14;;;;;;;10.43;5.40;;;;;;;;;;4981444;28;92678;-68
2022/12/26 02:36:59;;;;;;;11.13;5.80;;;;;;;;;;4983124;28;92015;-68
2022/12/26 02:39:29;;;;;;;10.80;5.60;;;;;;;;;;4982187;28;91489;-67
2022/12/26 02:42:29;;;;;;;10.73;5.53;;;;;;;;;;4984423;28;95718;-67
2022/12/26 02:48:12;;;;;;;12.85;6.30;;;;;;;;;;4965262;28;94932;-68
2022/12/26 03:13:27;;;;;;;11.30;5.50;;;;;;;;;;4988053;28;91950;-68
2022/12/26 03:19:07;;;;;;;11.60;5.95;;;;;;;;;;4978639;28;92476;-68
2022/12/26 03:21:37;;;;;;;15.82;5.75;;;;;;;;;;4979808;28;92306;-68
2022/12/26 03:24:06;;;;;;;10.45;5.15;;;;;;;;;;4974122;28;92316;-68
2022/12/26 03:26:39;;;;;;;9.82;5.28;;;;;;;;;;4981859;28;93122;-68
2022/12/26 03:31:53;;;;;;;10.00;5.45;;;;;;;;;;4979615;28;92349;-67
2022/12/26 03:34:19;;;;;;;10.57;5.68;;;;;;;;;;4981759;28;91299;-68
2022/12/26 03:36:49;;;;;;;11.48;5.82;;;;;;;;;;4982337;28;92277;-68
2022/12/26 04:19:27;;;;;;;10.18;5.68;;;;;;;;;;4981175;28;92945;-66
2022/12/26 04:44:16;;;;;;;9.00;4.88;;;;;;;;;;4987825;28;92426;-68
2022/12/26 04:46:44;;;;;;;9.38;4.95;;;;;;;;;;4984517;28;92668;-68
2022/12/26 04:50:13;;;;;;;8.98;5.10;;;;;;;;;;4987957;28;92040;-68
2022/12/26 04:52:08;;;;;;;9.30;5.07;;;;;;;;;;4979466;28;92567;-68
2022/12/26 04:54:35;;;;;;;9.13;5.05;;;;;;;;;;4984665;28;92632;-68
2022/12/26 04:57:02;;;;;;;9.35;5.50;;;;;;;;;;4983717;28;91623;-67
2022/12/26 04:59:28;;;;;;;10.02;5.43;;;;;;;;;;4984871;28;92359;-67
2022/12/26 05:10:22;;;;;;;10.10;5.43;;;;;;;;;;4984004;28;92040;-67
2022/12/26 05:12:48;;;;;;;10.27;5.70;;;;;;;;;;4984200;28;92483;-67
2022/12/26 05:15:15;;;;;;;10.75;5.65;;;;;;;;;;4983746;28;92746;-69
2022/12/26 05:28:43;;;;;;;9.95;6.18;;;;;;;;;;4984053;28;92285;-68
2022/12/26 05:31:13;;;;;;;10.50;6.03;;;;;;;;;;4985140;28;96445;-68
2022/12/26 05:36:49;;;;;;;9.88;5.07;;;;;;;;;;4973986;28;92926;-68
2022/12/26 05:39:15;;;;;;;10.45;5.90;;;;;;;;;;4968748;28;92348;-68
2022/12/26 05:41:42;;;;;;;9.90;5.85;;;;;;;;;;4983941;28;92322;-68
2022/12/26 05:44:08;;;;;;;9.73;5.28;;;;;;;;;;4983804;28;93029;-68
2022/12/26 05:46:35;;;;;;;9.90;5.18;;;;;;;;;;4983143;28;92527;-69
2022/12/26 05:49:02;;;;;;;9.18;4.90;;;;;;;;;;4987467;28;92089;-68
2022/12/26 05:51:28;;;;;;;10.05;5.47;;;;;;;;;;4982537;28;92152;-68
2022/12/26 05:53:54;;;;;;;8.88;4.50;;;;;;;;;;4986963;28;92381;-68
2022/12/26 05:56:21;;;;;;;9.60;5.18;;;;;;;;;;4981768;28;96609;-69
2022/12/26 05:58:52;;;;;;;8.43;4.80;;;;;;;;;;4983569;28;92588;-68
2022/12/26 06:01:19;;;;;;;8.75;4.00;;;;;;;;;;4983627;28;92467;-68
2022/12/26 06:03:47;;;;;;;9.60;4.53;;;;;;;;;;4983230;28;92686;-67
2022/12/26 06:06:13;;;;;;;;;;;;;;;;;;4983517;28;92128;-68
2022/12/26 06:08:39;;;;;;;7.38;3.60;;;;;;;;;;4984370;28;118528;-68
2022/12/26 06:11:07;;;;;;;8.18;3.50;;;;;;;;;;4983760;28;92677;-68
2022/12/26 06:13:35;;;;;;;7.18;3.90;;;;;;;;;;4983356;28;91652;-68
2022/12/26 06:16:05;;;;;;;7.32;3.53;;;;;;;;;;4985972;28;92253;-68
2022/12/26 06:18:32;;;;;;;7.10;3.83;;;;;;;;;;4983065;28;92356;-68
2022/12/26 06:21:01;;;;;;;7.45;3.60;;;;;;;;;;4981715;28;94665;-68
2022/12/26 06:23:28;;;;;;;7.45;3.70;;;;;;;;;;4982894;28;92210;-68
2022/12/26 06:25:55;;;;;;;8.20;3.53;;;;;;;;;;4983262;28;92501;-68
2022/12/26 06:28:22;;;;;;;6.93;3.40;;;;;;;;;;4983529;28;92187;-68
2022/12/26 06:30:49;;;;;;;7.00;3.53;;;;;;;;;;4983067;28;92841;-68
2022/12/26 06:33:16;;;;;;;6.70;2.80;;;;;;;;;;4983171;28;92392;-68
2022/12/26 06:35:43;;;;;;;7.32;3.20;;;;;;;;;;4974025;28;92966;-68
2022/12/26 06:38:09;;;;;;;6.30;3.13;;;;;;;;;;4983783;28;91605;-69
2022/12/26 06:40:39;;;;;;;6.57;3.17;;;;;;;;;;4983021;28;92796;-69
2022/12/26 06:43:06;;;;;;;6.43;2.70;;;;;;;;;;4982734;28;92485;-70
2022/12/26 06:45:33;;;;;;;5.93;2.58;;;;;;;;;;4981089;28;94532;-69
2022/12/26 06:48:00;;;;;;;6.97;2.75;;;;;;;;;;4982489;28;96103;-69
2022/12/26 06:50:26;;;;;;;6.63;2.80;;;;;;;;;;4985843;28;92164;-69
2022/12/26 06:52:53;;;;;;;5.50;2.53;;;;;;;;;;4982504;28;92210;-69
2022/12/26 06:55:19;;;;;;;5.63;2.60;;;;;;;;;;4982518;28;93387;-69
2022/12/26 06:57:45;;;;;;;6.93;3.05;;;;;;;;;;4984859;28;93112;-69
2022/12/26 07:00:12;;;;;;;5.43;2.38;;;;;;;;;;4982366;28;92940;-70
2022/12/26 07:02:38;;;;;;;5.47;2.70;;;;;;;;;;4982850;28;91909;-69
2022/12/26 07:05:05;;;;;;;5.88;2.60;;;;;;;;;;4982727;28;92231;-69
2022/12/26 07:07:31;;;;;;;5.50;2.42;;;;;;;;;;4982426;28;92537;-69
2022/12/26 07:09:58;;;;;;;6.70;2.67;;;;;;;;;;4980588;28;95623;-68
2022/12/26 07:12:24;;;;;;;7.45;2.35;;;;;;;;;;4981958;28;92012;-69
2022/12/26 07:14:50;;;;;;;6.32;2.67;;;;;;;;;;4982440;28;92196;-69
2022/12/26 07:17:20;;;;;;;5.88;2.30;;;;;;;;;;4981547;28;92621;-69
2022/12/26 07:19:47;;;;;;;5.40;2.42;;;;;;;;;;4985381;28;92193;-69
2022/12/26 07:22:13;;;;;;;6.40;2.00;;;;;;;;;;4982049;28;92871;-69
2022/12/26 07:24:39;;;;;;;4.95;2.30;;;;;;;;;;4982548;28;92368;-68
2022/12/26 07:27:06;;;;;;;5.57;2.30;;;;;;;;;;4982988;28;92466;-69
2022/12/26 07:29:32;;;;;;;4.93;2.08;;;;;;;;;;4981878;28;92519;-68
2022/12/26 07:31:59;;;;;;;5.05;2.20;;;;;;;;;;4982157;28;92364;-69
2022/12/26 07:34:25;;;;;;;4.78;2.00;;;;;;;;;;4975777;28;94949;-69
2022/12/26 07:36:58;;;;;;;6.90;2.17;;;;;;;;;;4976487;28;92900;-69
2022/12/26 07:39:24;;;;;;;4.70;2.10;;;;;;;;;;4982178;28;92755;-69
2022/12/26 07:41:57;;;;;;;6.18;2.08;;;;;;;;;;4985074;28;92408;-69
2022/12/26 07:44:27;;;;;;;5.07;1.80;;;;;;;;;;4980047;28;92637;-68
2022/12/26 07:46:53;;;;;;;5.05;2.53;;;;;;;;;;4981864;28;92336;-69
2022/12/26 07:49:20;;;;;;;5.50;1.73;;;;;;;;;;4983545;28;93063;-68
2022/12/26 07:51:47;;;;;;;4.03;1.90;;;;;;;;;;4982516;28;91596;-69
2022/12/26 07:54:13;;;;;;;4.20;1.80;;;;;;;;;;4986376;28;92752;-68
2022/12/26 07:56:40;;;;;;;5.40;1.95;;;;;;;;;;4991152;28;93765;-67
2022/12/26 07:59:07;;;;;;;3.75;1.40;;;;;;;;;;4979710;28;94844;-67
2022/12/26 08:01:33;;;;;;;4.05;1.88;;;;;;;;;;4981263;28;95790;-67
2022/12/26 08:04:00;;;;;;;3.10;1.65;;;;;;;;;;4984205;28;93472;-67
2022/12/26 08:06:26;;;;;;;4.18;1.60;;;;;;;;;;4981498;28;92824;-69
2022/12/26 08:08:53;;;;;;;4.03;1.60;;;;;;;;;;4980531;28;92465;-69
2022/12/26 08:11:21;;;;;;;3.88;1.60;;;;;;;;;;4980794;28;92295;-68
2022/12/26 08:13:48;;;;;;;3.45;1.45;;;;;;;;;;4980653;28;92288;-68
2022/12/26 08:16:14;;;;;;;3.67;1.45;;;;;;;;;;4981349;28;92858;-68
2022/12/26 08:18:41;;;;;;;3.70;1.50;;;;;;;;;;4980953;28;92208;-69
2022/12/26 08:21:08;;;;;;;4.95;1.50;;;;;;;;;;4981412;28;92205;-68
2022/12/26 08:23:34;;;;;;;7.97;1.52;;;;;;;;;;4979371;28;94965;-69
2022/12/26 08:26:08;;;;;;;5.97;1.60;;;;;;;;;;4983034;28;92053;-69
2022/12/26 08:28:34;;;;;;;7.47;1.60;;;;;;;;;;4963162;28;93712;-69
2022/12/26 08:31:07;;;;;;;8.95;1.63;;;;;;;;;;4985654;28;93838;-69
2022/12/26 08:33:34;;;;;;;5.55;1.58;;;;;;;;;;4981310;28;92679;-69
2022/12/26 08:36:05;;;;;;;6.32;1.70;;;;;;;;;;4977273;28;92496;-74
2022/12/26 08:38:32;;;;;;;6.50;1.65;;;;;;;;;;4972694;28;93307;-69
2022/12/26 08:40:59;;;;;;;4.47;1.40;;;;;;;;;;4980863;28;92448;-69
2022/12/26 08:43:26;;;;;;;5.22;1.50;;;;;;;;;;4980073;28;93132;-69
2022/12/26 08:46:12;;;;;;;3.25;1.30;;;;;;;;;;4983629;28;91940;-69
2022/12/26 08:48:39;;;;;;;4.53;1.60;;;;;;;;;;4980711;28;95135;-69
2022/12/26 08:51:08;;;;;;;4.85;1.60;;;;;;;;;;4991286;28;92202;-68
2022/12/26 08:53:35;;;;;;;3.58;1.30;;;;;;;;;;4980151;28;93331;-68
2022/12/26 08:56:02;;;;;;;4.32;1.40;;;;;;;;;;4980100;28;92596;-68
2022/12/26 08:58:29;;;;;;;3.47;1.40;;;;;;;;;;4980236;28;92339;-68
2022/12/26 09:01:04;;;;;;;4.63;1.70;;;;;;;;;;4980206;28;93168;-68
2022/12/26 09:03:30;;;;;;;3.78;1.30;;;;;;;;;;4977177;28;92702;-67
2022/12/26 09:06:00;;;;;;;4.53;1.30;;;;;;;;;;4972471;28;91666;-67
2022/12/26 09:08:33;;;;;;;3.38;1.33;;;;;;;;;;4982763;28;92120;-67
2022/12/26 09:11:08;;;;;;;3.70;1.25;;;;;;;;;;4980543;28;92471;-67
2022/12/26 09:13:35;;;;;;;2.38;1.42;;;;;;;;;;4978771;28;94731;-67
2022/12/26 09:16:06;;;;;;;3.95;1.50;;;;;;;;;;4980270;28;92600;-66
2022/12/26 09:18:32;;;;;;;4.28;1.33;;;;;;;;;;4980450;28;92552;-66
2022/12/26 09:21:00;;;;;;;4.50;1.40;;;;;;;;;;4981643;28;92484;-67
2022/12/26 09:23:27;;;;;;;5.45;1.60;;;;;;;;;;4983421;28;92937;-67
2022/12/26 09:25:53;;;;;;;;;;;;;;;;;;4984051;28;92459;-67
2022/12/26 09:28:20;;;;;;;4.03;1.27;;;;;;;;;;4985167;28;121243;-66
2022/12/26 09:30:46;;;;;;;3.97;1.33;;;;;;;;;;4986797;28;91493;-66
2022/12/26 09:33:13;;;;;;;3.88;1.25;;;;;;;;;;4983808;28;92307;-66
2022/12/26 09:35:39;;;;;;;4.90;1.20;;;;;;;;;;4971366;28;92760;-67
2022/12/26 09:38:06;;;;;;;5.10;1.50;;;;;;;;;;4982066;28;94650;-66
2022/12/26 09:40:39;;;;;;;3.58;1.20;;;;;;;;;;4983041;28;94704;-66
2022/12/26 09:43:12;;;;;;;4.40;1.30;;;;;;;;;;4983581;28;92692;-67
2022/12/26 09:45:49;;;;;;;7.05;1.40;;;;;;;;;;4983648;28;92477;-67
2022/12/26 09:48:18;;;;;;;4.40;1.30;;;;;;;;;;4983694;28;92426;-67
2022/12/26 09:50:48;;;;;;;3.10;1.45;;;;;;;;;;4986194;28;92568;-67
2022/12/26 09:53:17;;;;;;;5.35;1.48;;;;;;;;;;4986518;28;92352;-67
2022/12/26 09:55:45;;;;;;;11.15;1.30;;;;;;;;;;4983472;28;92625;-67
2022/12/26 09:58:14;;;;;;;3.53;1.20;;;;;;;;;;4983348;28;92307;-68
2022/12/26 10:00:51;;;;;;;4.63;1.30;;;;;;;;;;4982872;28;92220;-67
2022/12/26 10:03:18;;;;;;;6.78;1.30;;;;;;;;;;4981763;28;94928;-68
2022/12/26 10:05:56;;;;;;;4.03;1.20;;;;;;;;;;4982920;28;92413;-68
2022/12/26 10:08:28;;;;;;;3.72;1.30;;;;;;;;;;4980690;28;92234;-67
2022/12/26 10:10:59;;;;;;;5.55;1.05;;;;;;;;;;4982402;28;92894;-68
2022/12/26 10:13:36;;;;;;;3.40;1.00;;;;;;;;;;4980842;28;92468;-67
2022/12/26 10:16:07;;;;;;;4.00;1.10;;;;;;;;;;4984037;28;92496;-67
2022/12/26 10:18:39;;;;;;;3.67;1.13;;;;;;;;;;4982684;28;92006;-68
2022/12/26 10:21:11;;;;;;;3.90;1.10;;;;;;;;;;4970272;28;92279;-68
2022/12/26 10:23:39;;;;;;;2.38;0.88;;;;;;;;;;4982652;28;92731;-67
2022/12/26 10:26:14;;;;;;;2.92;0.85;;;;;;;;;;4983072;28;92387;-66
2022/12/26 10:28:59;;;;;;;6.93;1.00;;;;;;;;;;4980955;28;94717;-68
2022/12/26 10:31:33;;;;;;;3.67;0.80;;;;;;;;;;4982316;28;92663;-68
2022/12/26 10:34:03;;;;;;;5.95;0.95;;;;;;;;;;4979403;28;92181;-72
2022/12/26 10:36:35;;;;;;;3.25;1.00;;;;;;;;;;4979730;28;92744;-68
2022/12/26 10:39:04;;;;;;;2.22;0.70;;;;;;;;;;4984950;28;92546;-68
2022/12/26 10:41:41;;;;;;;6.35;1.05;;;;;;;;;;4981850;28;93728;-69
2022/12/26 10:44:10;;;;;;;5.13;0.90;;;;;;;;;;4981642;28;93498;-69
2022/12/26 10:46:55;;;;;;;3.20;0.90;;;;;;;;;;4980624;28;91640;-68
2022/12/26 10:49:24;;;;;;;4.07;0.90;;;;;;;;;;4983866;28;92274;-68
2022/12/26 10:51:51;;;;;;;2.22;0.77;;;;;;;;;;4981925;28;92849;-68
2022/12/26 10:54:18;;;;;;;;;;;;;;;;;;4979854;28;96113;-69
2022/12/26 10:56:46;;;;;;;3.90;1.00;;;;;;;;;;4983211;28;95225;-69
2022/12/26 10:59:25;;;;;;;6.38;0.90;;;;;;;;;;4984914;28;94425;-70
2022/12/26 11:01:52;;;;;;;3.38;1.00;;;;;;;;;;4969895;28;93324;-70
2022/12/26 11:04:22;;;;;;;5.78;0.80;;;;;;;;;;4975121;28;92262;-71
2022/12/26 11:07:10;;;;;;;3.30;0.80;;;;;;;;;;4982246;28;92390;-70
2022/12/26 11:09:41;;;;;;;5.68;1.20;;;;;;;;;;4981882;28;92424;-69
2022/12/26 11:12:19;;;;;;;9.32;1.00;;;;;;;;;;4979158;28;91896;-70
2022/12/26 11:14:45;;;;;;;5.85;0.90;;;;;;;;;;4978788;28;92381;-71
2022/12/26 11:17:22;;;;;;;4.78;1.00;;;;;;;;;;4961847;28;92507;-71
2022/12/26 11:20:07;;;;;;;4.57;0.95;;;;;;;;;;4968374;28;95075;-72
2022/12/26 11:22:33;;;;;;;4.30;0.90;;;;;;;;;;4985306;28;92361;-71
2022/12/26 11:25:11;;;;;;;5.70;0.85;;;;;;;;;;4981847;28;93259;-70
2022/12/26 11:27:48;;;;;;;5.97;0.95;;;;;;;;;;4971555;28;92401;-70
2022/12/26 11:30:21;;;;;;;8.63;1.60;;;;;;;;;;4981982;28;93010;-70
2022/12/26 11:33:02;;;;;;;7.68;2.70;;;;;;;;;;4981555;28;93888;-70
2022/12/26 11:35:36;;;;;;;8.68;3.05;;;;;;;;;;4968897;28;92124;-70
2022/12/26 11:38:04;;;;;;;8.65;2.58;;;;;;;;;;4982333;28;92313;-70
2022/12/26 11:40:34;;;;;;;7.18;2.28;;;;;;;;;;4980283;28;92881;-69
2022/12/26 11:43:01;;;;;;;6.30;2.20;;;;;;;;;;4978365;28;93683;-71
2022/12/26 11:45:29;;;;;;;7.80;2.30;;;;;;;;;;4982678;28;94854;-70
2022/12/26 11:48:07;;;;;;;6.63;2.08;;;;;;;;;;4979192;28;92115;-69
2022/12/26 11:50:42;;;;;;;6.93;1.70;;;;;;;;;;4982969;28;92296;-69
2022/12/26 11:53:13;;;;;;;7.90;2.03;;;;;;;;;;4981011;28;94022;-70
2022/12/26 11:55:39;;;;;;;8.80;2.25;;;;;;;;;;4973995;28;92228;-70
2022/12/26 11:58:07;;;;;;;;;;;;;;;;;;4969151;28;92863;-70
2022/12/26 12:00:39;;;;;;;5.13;1.90;;;;;;;;;;4981193;28;122234;-71
2022/12/26 12:03:11;;;;;;;4.85;1.67;;;;;;;;;;4982571;28;91695;-70
2022/12/26 12:05:57;;;;;;;7.20;1.77;;;;;;;;;;4981095;28;92152;-70
2022/12/26 12:08:23;;;;;;;7.38;1.90;;;;;;;;;;4984700;28;92840;-70
2022/12/26 12:10:59;;;;;;;6.07;1.75;;;;;;;;;;4978974;28;94705;-70
2022/12/26 12:13:28;;;;;;;5.28;1.60;;;;;;;;;;4980065;28;94135;-70
2022/12/26 12:15:57;;;;;;;5.13;1.60;;;;;;;;;;4980740;28;92130;-70
2022/12/26 12:18:42;;;;;;;5.63;1.70;;;;;;;;;;4980829;28;92103;-70
2022/12/26 12:21:23;;;;;;;6.25;1.60;;;;;;;;;;4966719;28;92937;-70
2022/12/26 12:24:00;;;;;;;5.57;1.70;;;;;;;;;;4979418;28;92064;-69
2022/12/26 12:26:49;;;;;;;6.47;1.50;;;;;;;;;;4979883;28;93214;-70
2022/12/26 12:29:33;;;;;;;6.10;1.77;;;;;;;;;;4978363;28;91984;-70
2022/12/26 12:32:08;;;;;;;6.47;1.70;;;;;;;;;;4983432;28;92319;-70
2022/12/26 12:34:53;;;;;;;5.30;1.42;;;;;;;;;;4979730;28;92389;-70
2022/12/26 12:37:19;;;;;;;4.22;1.30;;;;;;;;;;4978528;28;94934;-70
2022/12/26 12:39:46;;;;;;;4.45;1.20;;;;;;;;;;4980000;28;95233;-70
2022/12/26 12:42:22;;;;;;;8.15;1.90;;;;;;;;;;4980139;28;92947;-69
2022/12/26 12:44:48;;;;;;;11.10;1.63;;;;;;;;;;4980804;28;92002;-70
2022/12/26 12:47:36;;;;;;;3.53;1.27;;;;;;;;;;4980239;28;93149;-70
2022/12/26 12:50:23;;;;;;;5.22;1.38;;;;;;;;;;4981226;28;92615;-70
2022/12/26 12:52:53;;;;;;;5.22;1.20;;;;;;;;;;4979929;28;93142;-70
2022/12/26 12:55:25;;;;;;;8.65;1.80;;;;;;;;;;4984236;28;92249;-71
2022/12/26 12:57:55;;;;;;;7.15;1.55;;;;;;;;;;4984345;28;92049;-71
2022/12/26 13:00:23;;;;;;;4.72;1.30;;;;;;;;;;4984217;28;92619;-72
2022/12/26 13:02:54;;;;;;;7.97;1.30;;;;;;;;;;4982346;28;94935;-72
2022/12/26 13:05:40;;;;;;;11.48;1.70;;;;;;;;;;4985193;28;92063;-73
2022/12/26 13:08:10;;;;;;;8.98;1.50;;;;;;;;;;4984845;28;92276;-74
2022/12/26 13:10:46;;;;;;;7.38;1.45;;;;;;;;;;4984349;28;92630;-75
2022/12/26 13:13:18;;;;;;;14.75;1.80;;;;;;;;;;4983895;28;92255;-73
2022/12/26 13:15:47;;;;;;;9.07;1.60;;;;;;;;;;4969345;28;92930;-71
2022/12/26 13:18:16;;;;;;;6.97;1.48;;;;;;;;;;4982486;28;92480;-71
2022/12/26 13:20:52;;;;;;;7.57;1.27;;;;;;;;;;4984356;28;92423;-74
2022/12/26 13:26:14;;;;;;;5.47;1.50;;;;;;;;;;4984885;28;92338;-72
2022/12/26 13:29:04;;;;;;;6.13;1.48;;;;;;;;;;4982555;28;94647;-72
2022/12/26 13:31:34;;;;;;;6.82;1.35;;;;;;;;;;4972743;28;92775;-71
2022/12/26 13:34:02;;;;;;;6.72;1.60;;;;;;;;;;4981528;28;92232;-70
2022/12/26 13:36:39;;;;;;;6.47;1.60;;;;;;;;;;4971551;28;92169;-69
2022/12/26 13:39:14;;;;;;;5.57;1.30;;;;;;;;;;4985671;28;92623;-71
2022/12/26 13:44:33;;;;;;;7.50;1.30;;;;;;;;;;4983482;28;93514;-71
2022/12/26 13:46:59;;;;;;;6.25;1.50;;;;;;;;;;4984129;28;91506;-71
2022/12/26 13:49:26;;;;;;;6.78;1.30;;;;;;;;;;4983394;28;92391;-72
2022/12/26 13:51:54;;;;;;;6.07;1.30;;;;;;;;;;4971126;28;94617;-70
2022/12/26 13:54:22;;;;;;;5.22;1.10;;;;;;;;;;4980294;28;94535;-72
2022/12/26 13:56:55;;;;;;;3.15;1.05;;;;;;;;;;4983224;28;95164;-73
2022/12/26 13:59:37;;;;;;;8.35;1.30;;;;;;;;;;4982913;28;92374;-73
2022/12/26 14:02:23;;;;;;;5.53;1.30;;;;;;;;;;4986117;28;92278;-72
2022/12/26 14:05:28;;;;;;;6.45;1.20;;;;;;;;;;4983232;28;92512;-67
2022/12/26 14:07:56;;;;;;;5.63;1.65;;;;;;;;;;4980478;28;92372;-72
2022/12/26 14:10:25;;;;;;;6.88;1.27;;;;;;;;;;4980834;28;92326;-71
2022/12/26 14:12:58;;;;;;;6.50;1.30;;;;;;;;;;4971154;28;92877;-74
2022/12/26 14:15:24;;;;;;;7.35;1.52;;;;;;;;;;4981718;28;92365;-71
2022/12/26 14:17:59;;;;;;;5.22;1.20;;;;;;;;;;4978281;28;93105;-73
2022/12/26 14:20:41;;;;;;;5.70;1.38;;;;;;;;;;4978031;28;95027;-74
2022/12/26 14:23:10;;;;;;;6.00;1.40;;;;;;;;;;4984264;28;92322;-74
2022/12/26 14:25:58;;;;;;;5.47;1.30;;;;;;;;;;4969462;28;94084;-73
2022/12/26 14:28:33;;;;;;;8.00;1.48;;;;;;;;;;4965409;28;92125;-73
2022/12/26 14:30:59;;;;;;;5.85;1.45;;;;;;;;;;4963116;28;92219;-72
2022/12/26 14:33:33;;;;;;;4.53;1.15;;;;;;;;;;4968515;28;93379;-74
2022/12/26 14:35:59;;;;;;;;;;;;;;;;;;4969645;28;92215;-71
2022/12/26 14:38:45;;;;;;;6.10;1.27;;;;;;;;;;4972254;28;109519;-71
2022/12/26 14:44:10;;;;;;;5.28;1.20;;;;;;;;;;4963684;28;92339;-71
2022/12/26 14:46:38;;;;;;;3.08;1.27;;;;;;;;;;4975176;28;94523;-73
2022/12/26 14:49:21;;;;;;;6.07;1.20;;;;;;;;;;4983319;28;92412;-71
2022/12/26 14:51:48;;;;;;;5.47;1.20;;;;;;;;;;4983681;28;92819;-69
2022/12/26 14:54:32;;;;;;;4.30;1.48;;;;;;;;;;4981008;28;92426;-69
2022/12/26 14:56:59;;;;;;;6.90;1.23;;;;;;;;;;4981370;28;92390;-69
2022/12/26 14:59:28;;;;;;;6.70;1.35;;;;;;;;;;4980572;28;92984;-69
2022/12/26 15:02:01;;;;;;;5.45;1.40;;;;;;;;;;4980812;28;92634;-68
2022/12/26 15:05:00;;;;;;;5.07;1.30;;;;;;;;;;4980288;28;91687;-69
2022/12/26 15:07:45;;;;;;;4.20;1.30;;;;;;;;;;4957663;28;92616;-68
2022/12/26 15:10:32;;;;;;;3.17;1.40;;;;;;;;;;4979781;28;92645;-68
2022/12/26 15:13:01;;;;;;;7.38;1.27;;;;;;;;;;4982104;28;94962;-69
2022/12/26 15:15:46;;;;;;;5.80;1.25;;;;;;;;;;4981264;28;92934;-69
2022/12/26 15:18:25;;;;;;;5.60;1.30;;;;;;;;;;4981550;28;92332;-69
2022/12/26 15:21:07;;;;;;;6.57;2.92;;;;;;;;;;4981257;28;92965;-69
2022/12/26 15:23:51;;;;;;;9.10;4.20;;;;;;;;;;4981832;28;92641;-69
2022/12/26 15:26:17;;;;;;;15.48;8.95;;;;;;;;;;4981978;28;92287;-68
2022/12/26 15:29:00;;;;;;;14.60;9.35;;;;;;;;;;4981569;28;93262;-70
2022/12/26 15:31:35;;;;;;;13.43;8.38;;;;;;;;;;4976222;28;91988;-69
2022/12/26 15:34:23;;;;;;;12.23;7.60;;;;;;;;;;4979875;28;92688;-69
2022/12/26 15:37:02;;;;;;;12.75;7.22;;;;;;;;;;4981635;28;92498;-69
2022/12/26 15:39:41;;;;;;;11.73;6.70;;;;;;;;;;4980137;28;94681;-69
2022/12/26 15:42:10;;;;;;;11.18;6.55;;;;;;;;;;4977005;28;94861;-69
2022/12/26 15:44:49;;;;;;;11.98;6.55;;;;;;;;;;4979489;28;92164;-69
2022/12/26 15:47:24;;;;;;;10.75;5.80;;;;;;;;;;4979646;28;92296;-69
2022/12/26 15:49:58;;;;;;;11.32;6.00;;;;;;;;;;4993441;28;92602;-71
2022/12/26 15:52:33;;;;;;;11.18;6.60;;;;;;;;;;4981126;28;92903;-68
2022/12/26 15:55:23;;;;;;;11.13;5.90;;;;;;;;;;4979128;28;92503;-68
2022/12/26 15:57:56;;;;;;;12.73;5.90;;;;;;;;;;4976355;28;92066;-68
2022/12/26 16:00:24;;;;;;;10.52;5.30;;;;;;;;;;4973875;28;93187;-70
2022/12/26 16:02:56;;;;;;;11.00;5.43;;;;;;;;;;4977975;28;92848;-69
2022/12/26 16:05:23;;;;;;;10.07;5.10;;;;;;;;;;4977771;28;94967;-68
2022/12/26 16:07:56;;;;;;;14.45;5.47;;;;;;;;;;4968008;28;92200;-69
2022/12/26 16:10:25;;;;;;;11.70;5.22;;;;;;;;;;4978923;28;92306;-68
2022/12/26 16:13:02;;;;;;;9.90;4.57;;;;;;;;;;4964950;28;92596;-68
2022/12/26 16:15:30;;;;;;;12.20;4.53;;;;;;;;;;4974697;28;92138;-68
2022/12/26 16:18:13;;;;;;;10.93;4.57;;;;;;;;;;4981346;28;92438;-69
2022/12/26 16:23:26;;;;;;;8.93;4.22;;;;;;;;;;4981717;28;92271;-67
2022/12/26 16:25:54;;;;;;;9.07;4.20;;;;;;;;;;4980783;28;92631;-68
2022/12/26 16:28:25;;;;;;;11.13;4.90;;;;;;;;;;4981304;28;92010;-68
2022/12/26 16:30:51;;;;;;;11.18;4.18;;;;;;;;;;4964794;28;94427;-67
2022/12/26 16:33:18;;;;;;;8.55;3.92;;;;;;;;;;4981131;28;93001;-68
2022/12/26 16:35:44;;;;;;;10.32;4.60;;;;;;;;;;4969425;28;92061;-68
2022/12/26 16:38:15;;;;;;;10.38;4.28;;;;;;;;;;4981258;28;92319;-68
2022/12/26 16:40:46;;;;;;;8.98;3.53;;;;;;;;;;4980473;28;92655;-68
2022/12/26 16:43:12;;;;;;;10.05;3.90;;;;;;;;;;4984601;28;91962;-68
2022/12/26 16:45:39;;;;;;;10.13;4.07;;;;;;;;;;4980503;28;92413;-66
2022/12/26 16:48:07;;;;;;;10.45;3.53;;;;;;;;;;4982246;28;91546;-67
2022/12/26 16:50:36;;;;;;;8.52;3.60;;;;;;;;;;4982693;28;93114;-68
2022/12/26 16:53:08;;;;;;;8.68;3.38;;;;;;;;;;4979113;28;93249;-67
2022/12/26 16:55:41;;;;;;;10.32;3.60;;;;;;;;;;4979031;28;94967;-68
2022/12/26 16:58:17;;;;;;;10.25;3.90;;;;;;;;;;4980286;28;95848;-68
2022/12/26 17:00:45;;;;;;;9.75;3.58;;;;;;;;;;4977274;28;93537;-68
2022/12/26 17:03:19;;;;;;;8.05;3.20;;;;;;;;;;4978376;28;92086;-67
2022/12/26 17:05:46;;;;;;;8.32;3.40;;;;;;;;;;4983261;28;92765;-66
2022/12/26 17:08:13;;;;;;;7.63;2.97;;;;;;;;;;4962820;28;92274;-68
2022/12/26 17:10:44;;;;;;;9.65;3.80;;;;;;;;;;4968368;28;92358;-67
2022/12/26 17:13:15;;;;;;;7.88;3.15;;;;;;;;;;4980246;28;91762;-68
2022/12/26 17:15:48;;;;;;;8.88;3.35;;;;;;;;;;4982359;28;93052;-76